Time;durP1;ratioP1;P1;durP2;ratioP2;P2;SDS_P1;SDS_P2;PMS_P1;PMS_P2;Temp;Humidity;BMP_temperature;BMP_pressure;BME280_temperature;BME280_humidity;BME280_pressure;Samples;Min_cycle;Max_cycle;Signal;HPM_P1;HPM_P2
2022/04/30 00:01:55;;;;;;;3.83;3.43;;;12.80;64.00;12.10;98744.00;;;;5134253;28;20193;-75
2022/04/30 00:04:24;;;;;;;1.17;1.17;;;12.80;64.30;12.30;98745.00;;;;5134139;28;20194;-74
2022/04/30 00:06:50;;;;;;;0.90;0.90;;;12.80;64.20;12.20;98747.00;;;;5135172;28;20274;-76
2022/04/30 00:09:19;;;;;;;1.57;1.47;;;12.90;63.60;12.10;98742.00;;;;5134676;28;20205;-75
2022/04/30 00:11:47;;;;;;;1.47;1.40;;;12.80;63.40;12.30;98745.00;;;;5116177;28;20209;-75
2022/04/30 00:14:14;;;;;;;1.20;1.20;;;12.90;63.40;12.30;98744.00;;;;5116333;28;20595;-75
2022/04/30 00:16:40;;;;;;;1.10;1.10;;;12.80;62.90;12.30;98747.00;;;;5134142;28;20296;-75
2022/04/30 00:19:06;;;;;;;1.50;1.40;;;12.90;62.40;12.20;98754.00;;;;5116244;28;20648;-75
2022/04/30 00:21:33;;;;;;;1.17;1.13;;;12.80;61.80;12.30;98750.00;;;;5136355;27;20677;-76
2022/04/30 00:24:00;;;;;;;1.23;1.23;;;12.90;60.20;12.30;98749.00;;;;5137746;28;20276;-75
2022/04/30 00:26:26;;;;;;;1.30;1.30;;;12.90;59.90;12.40;98745.00;;;;5137543;28;20197;-75
2022/04/30 00:28:54;;;;;;;1.67;1.57;;;13.00;58.50;12.40;98751.00;;;;5137447;28;20193;-75
2022/04/30 00:31:20;;;;;;;1.43;1.33;;;13.00;57.60;12.60;98747.00;;;;5119184;28;20682;-75
2022/04/30 00:33:49;;;;;;;2.13;1.77;;;13.00;56.80;12.60;98750.00;;;;5137256;28;20221;-75
2022/04/30 00:36:16;;;;;;;1.30;1.30;;;13.10;56.00;12.70;98741.00;;;;5137343;28;20216;-75
2022/04/30 00:38:43;;;;;;;1.27;1.17;;;13.20;55.50;12.70;98743.00;;;;5137322;28;20202;-75
2022/04/30 00:41:10;;;;;;;1.80;1.70;;;13.30;55.40;12.70;98744.00;;;;5137120;28;20206;-74
2022/04/30 00:43:50;;;;;;;5.57;2.30;;;13.20;55.40;12.70;98743.00;;;;5137117;28;20232;-74
2022/04/30 00:46:20;;;;;;;0.90;0.90;;;13.20;56.00;12.60;98753.00;;;;5137105;28;20246;-74
2022/04/30 00:48:47;;;;;;;1.83;1.73;;;13.20;56.00;12.60;98742.00;;;;5137141;28;20261;-74
2022/04/30 00:51:17;;;;;;;0.77;0.77;;;13.20;57.30;12.50;98748.00;;;;5136965;28;20220;-74
2022/04/30 00:53:46;;;;;;;1.43;1.43;;;13.20;57.30;12.50;98740.00;;;;5136960;28;20229;-75
2022/04/30 00:56:18;;;;;;;2.00;1.30;;;13.10;57.80;12.60;98746.00;;;;5136980;28;20216;-74
2022/04/30 00:58:48;;;;;;;4.23;0.90;;;13.10;58.30;12.60;98747.00;;;;5118837;28;20197;-75
2022/04/30 01:01:15;;;;;;;1.33;1.23;;;13.20;58.20;12.60;98748.00;;;;5118769;28;20715;-74
2022/04/30 01:03:45;;;;;;;0.80;0.80;;;13.20;58.30;12.70;98754.00;;;;5136777;28;20644;-74
2022/04/30 01:06:14;;;;;;;1.17;1.17;;;13.20;58.80;12.50;98746.00;;;;5118563;28;20756;-74
2022/04/30 01:08:40;;;;;;;1.60;1.53;;;13.20;59.60;12.50;98742.00;;;;5136802;28;20186;-74
2022/04/30 01:11:07;;;;;;;2.30;1.80;;;13.10;60.30;12.40;98746.00;;;;5136633;28;20706;-74
2022/04/30 01:13:37;;;;;;;2.10;1.93;;;13.10;60.70;12.40;98751.00;;;;5136447;28;20357;-74
2022/04/30 01:16:06;;;;;;;1.23;1.23;;;13.10;61.50;12.40;98748.00;;;;5118798;28;20212;-75
2022/04/30 01:18:35;;;;;;;1.73;1.63;;;13.00;61.90;12.30;98752.00;;;;5136441;28;20189;-75
2022/04/30 01:21:12;;;;;;;1.77;1.67;;;13.00;62.80;12.50;98747.00;;;;5136415;28;20547;-75
2022/04/30 01:23:43;;;;;;;1.83;1.73;;;13.00;62.90;12.40;98744.00;;;;5136507;28;20330;-74
2022/04/30 01:26:14;;;;;;;1.70;1.60;;;13.00;63.20;12.20;98731.00;;;;5136547;28;20193;-74
2022/04/30 01:28:44;;;;;;;7.77;2.53;;;12.90;63.90;12.20;98743.00;;;;5136559;28;20205;-74
2022/04/30 01:39:35;;;;;;;1.23;1.23;;;12.80;65.50;12.10;98725.00;;;;5136178;28;20189;-74
2022/04/30 01:42:11;;;;;;;1.33;1.30;;;12.80;65.90;12.20;98732.00;;;;5136239;28;20209;-74
2022/04/30 01:44:42;;;;;;;2.73;2.53;;;12.70;66.70;12.30;98723.00;;;;5136229;28;20170;-74
2022/04/30 01:47:08;;;;;;;2.07;1.97;;;12.70;66.90;12.10;98722.00;;;;5136063;28;20221;-74
2022/04/30 01:49:37;;;;;;;2.40;1.73;;;12.70;67.40;12.10;98720.00;;;;5136029;28;20221;-74
2022/04/30 01:52:10;;;;;;;2.23;2.13;;;12.70;67.50;12.20;98720.00;;;;5136016;28;20201;-74
2022/04/30 01:54:37;;;;;;;1.30;1.30;;;12.70;67.20;12.20;98717.00;;;;5135969;28;20300;-74
2022/04/30 01:57:06;;;;;;;1.83;1.73;;;12.80;66.80;12.30;98716.00;;;;5135932;28;20544;-74
2022/04/30 01:59:33;;;;;;;1.90;1.67;;;12.80;67.40;12.40;98707.00;;;;5135912;28;20273;-74
2022/04/30 02:02:00;;;;;;;1.80;1.70;;;12.90;66.80;12.30;98711.00;;;;5136027;28;20205;-74
2022/04/30 02:04:28;;;;;;;6.60;3.33;;;12.90;66.90;12.10;98710.00;;;;5135886;28;20330;-74
2022/04/30 02:06:59;;;;;;;2.63;2.47;;;12.70;67.50;12.10;98711.00;;;;5135660;28;20672;-74
2022/04/30 02:09:28;;;;;;;12.97;2.10;;;12.70;68.00;12.20;98712.00;;;;5117597;28;20204;-74
2022/04/30 02:11:59;;;;;;;3.27;2.40;;;12.70;68.40;12.10;98703.00;;;;5135674;28;20490;-74
2022/04/30 02:14:29;;;;;;;2.30;2.20;;;12.70;68.10;12.10;98688.00;;;;5135904;28;20220;-74
2022/04/30 02:17:01;;;;;;;1.40;1.30;;;12.70;68.00;12.10;98693.00;;;;5135780;28;20200;-74
2022/04/30 02:20:18;;;;;;;1.90;1.80;;;12.70;68.20;12.00;98711.00;;;;5135570;28;20246;-75
2022/04/30 02:22:17;;;;;;;1.50;1.40;;;12.70;68.20;12.10;98710.00;;;;5135682;28;20292;-75
2022/04/30 02:24:45;;;;;;;3.40;2.07;;;12.70;67.90;12.00;98709.00;;;;5135534;28;20703;-73
2022/04/30 02:27:13;;;;;;;1.73;1.63;;;12.60;68.40;12.00;98684.00;;;;5135412;28;20235;-74
2022/04/30 02:29:40;;;;;;;2.30;2.10;;;12.60;68.20;11.90;98709.00;;;;5135556;28;20245;-73
2022/04/30 02:32:07;;;;;;;1.73;1.43;;;12.60;68.40;12.00;98707.00;;;;5135448;28;20276;-74
2022/04/30 02:34:34;;;;;;;2.33;1.50;;;12.60;67.90;12.00;98714.00;;;;5135450;28;20250;-74
2022/04/30 02:37:01;;;;;;;20.40;2.40;;;12.60;69.00;11.90;98714.00;;;;5135333;28;20193;-73
2022/04/30 02:39:27;;;;;;;2.47;2.37;;;12.50;69.00;11.90;98714.00;;;;5135209;28;20272;-73
2022/04/30 02:41:54;;;;;;;1.87;1.77;;;12.50;68.90;11.90;98713.00;;;;5135244;28;20292;-74
2022/04/30 02:44:25;;;;;;;1.30;1.30;;;12.50;69.20;11.90;98719.00;;;;5134202;27;20201;-74
2022/04/30 02:46:53;;;;;;;2.00;1.90;;;12.40;69.60;11.80;98717.00;;;;5135229;28;20232;-74
2022/04/30 02:49:20;;;;;;;2.87;1.93;;;12.40;70.40;11.80;98717.00;;;;5135109;28;20225;-73
2022/04/30 02:51:49;;;;;;;1.87;1.77;;;12.40;70.60;11.90;98713.00;;;;5135086;28;20198;-73
2022/04/30 02:54:15;;;;;;;2.47;2.27;;;12.50;71.80;12.00;98704.00;;;;5134989;28;20277;-73
2022/04/30 02:56:42;;;;;;;1.53;1.47;;;12.50;70.80;11.80;98700.00;;;;5135405;28;20269;-73
2022/04/30 03:01:56;;;;;;;5.47;2.23;;;12.50;71.40;11.70;98698.00;;;;5121063;28;20253;-74
2022/04/30 03:04:23;;;;;;;1.40;1.40;;;12.30;72.50;11.70;98700.00;;;;5134974;28;20258;-73
2022/04/30 03:06:49;;;;;;;1.13;1.13;;;12.30;73.30;11.70;98708.00;;;;5135683;28;20307;-73
2022/04/30 03:09:16;;;;;;;2.07;1.97;;;12.30;73.40;11.80;98700.00;;;;5117916;28;20620;-73
2022/04/30 03:11:43;;;;;;;2.43;2.23;;;12.30;74.20;11.60;98696.00;;;;5143889;28;20278;-73
2022/04/30 03:14:13;;;;;;;10.70;3.73;;;12.20;74.70;11.60;98706.00;;;;5134672;28;20221;-73
2022/04/30 03:22:13;;;;;;;1.97;1.87;;;12.30;76.30;11.60;98707.00;;;;5134791;28;20277;-74
2022/04/30 03:24:40;;;;;;;3.00;2.83;;;12.20;77.00;11.70;98699.00;;;;5134942;28;20228;-74
2022/04/30 03:27:06;;;;;;;6.47;2.43;;;12.20;78.60;11.60;98693.00;;;;5134672;28;20307;-74
2022/04/30 03:29:33;;;;;;;3.00;2.80;;;12.20;78.60;11.50;98711.00;;;;5134578;28;20225;-74
2022/04/30 03:31:59;;;;;;;4.47;3.83;;;12.20;79.20;11.40;98706.00;;;;5134629;28;20199;-74
2022/04/30 03:34:28;;;;;;;2.53;2.33;;;12.10;80.40;11.60;98695.00;;;;5116401;28;20207;-74
2022/04/30 03:36:54;;;;;;;2.10;1.93;;;12.10;82.00;11.70;98707.00;;;;5134503;28;20190;-74
2022/04/30 03:39:23;;;;;;;2.53;2.43;;;12.20;81.90;11.60;98710.00;;;;5134497;28;20221;-74
2022/04/30 03:41:50;;;;;;;1.37;1.37;;;12.20;81.50;11.50;98711.00;;;;5134315;28;20186;-74
2022/04/30 03:44:16;;;;;;;1.00;1.00;;;12.10;83.10;11.50;98714.00;;;;5134638;28;20775;-76
2022/04/30 03:46:43;;;;;;;3.23;2.30;;;12.10;84.30;11.50;98719.00;;;;5134313;28;20220;-74
2022/04/30 03:49:13;;;;;;;2.63;2.43;;;12.00;84.50;11.50;98715.00;;;;5134298;28;20205;-74
2022/04/30 03:51:40;;;;;;;1.23;1.23;;;12.00;85.10;11.50;98725.00;;;;5116263;28;20660;-74
2022/04/30 03:54:07;;;;;;;3.03;1.57;;;12.10;86.00;11.40;98721.00;;;;5134456;28;20221;-74
2022/04/30 03:56:33;;;;;;;2.87;2.67;;;12.00;86.70;11.30;98722.00;;;;5136550;27;20204;-74
2022/04/30 03:59:00;;;;;;;2.33;1.93;;;11.90;88.30;11.20;98727.00;;;;5119788;28;20294;-74
2022/04/30 04:01:26;;;;;;;4.07;2.37;;;11.90;90.50;11.40;98734.00;;;;5137855;28;20205;-74
2022/04/30 04:03:53;;;;;;;2.77;2.57;;;12.00;90.10;11.40;98742.00;;;;5137866;28;20232;-74
2022/04/30 04:06:20;;;;;;;2.20;2.10;;;12.00;89.70;11.30;98734.00;;;;5137711;28;20236;-74
2022/04/30 04:08:51;;;;;;;1.97;1.87;;;11.90;90.60;11.30;98744.00;;;;5120079;28;20525;-74
2022/04/30 04:11:17;;;;;;;2.30;2.20;;;11.90;90.90;11.10;98743.00;;;;5137691;28;20243;-75
2022/04/30 04:19:20;;;;;;;3.10;2.90;;;11.80;92.70;11.00;98745.00;;;;5137490;28;20260;-74
2022/04/30 04:21:46;;;;;;;2.53;1.87;;;11.70;93.00;11.00;98734.00;;;;5137650;28;20213;-73
2022/04/30 04:26:58;;;;;;;2.27;2.17;;;11.70;94.60;11.20;98740.00;;;;5137756;28;20217;-73
2022/04/30 04:29:24;;;;;;;2.30;2.10;;;11.70;94.90;11.20;98735.00;;;;5137507;28;20211;-73
2022/04/30 04:31:51;;;;;;;1.73;1.67;;;11.80;94.80;11.40;98736.00;;;;5137425;28;20624;-73
2022/04/30 04:34:17;;;;;;;2.23;2.13;;;11.90;94.60;11.30;98739.00;;;;5137470;28;20272;-73
2022/04/30 04:36:44;;;;;;;6.40;2.93;;;11.80;94.90;11.20;98738.00;;;;5137552;28;20641;-74
2022/04/30 04:39:14;;;;;;;2.90;2.70;;;11.80;95.10;11.10;98738.00;;;;5119276;28;20231;-73
2022/04/30 04:41:42;;;;;;;2.60;2.40;;;11.70;96.20;11.00;98745.00;;;;5119542;28;20671;-73
2022/04/30 04:44:11;;;;;;;3.87;3.60;;;11.60;96.30;11.00;98739.00;;;;5137610;28;20205;-73
2022/04/30 04:46:39;;;;;;;2.87;2.43;;;11.60;97.20;10.90;98749.00;;;;5137203;28;20217;-73
2022/04/30 04:49:06;;;;;;;2.10;2.00;;;11.60;96.60;10.90;98713.00;;;;5137303;28;20197;-74
2022/04/30 04:51:35;;;;;;;3.73;3.27;;;11.50;96.80;11.10;98742.00;;;;5137067;28;20640;-74
2022/04/30 04:54:03;;;;;;;2.53;2.40;;;11.60;96.50;11.00;98741.00;;;;5137031;28;20221;-73
2022/04/30 04:56:31;;;;;;;6.07;2.30;;;11.60;96.60;11.00;98751.00;;;;5137076;28;20189;-74
2022/04/30 04:58:58;;;;;;;5.10;3.43;;;11.60;97.00;11.10;98753.00;;;;5136787;28;20193;-73
2022/04/30 05:01:25;;;;;;;2.03;1.93;;;11.60;98.20;10.90;98748.00;;;;5136995;28;20193;-73
2022/04/30 05:03:52;;;;;;;2.57;2.47;;;11.60;98.30;10.90;98756.00;;;;5119020;28;20285;-73
2022/04/30 05:06:18;;;;;;;3.13;2.37;;;11.50;98.10;11.00;98759.00;;;;5119276;28;20263;-74
2022/04/30 05:08:45;;;;;;;2.77;2.57;;;11.50;98.20;11.10;98761.00;;;;5137385;27;20215;-73
2022/04/30 05:11:11;;;;;;;2.20;1.83;;;11.60;97.30;11.00;98750.00;;;;5136732;28;20342;-73
2022/04/30 05:13:41;;;;;;;2.40;2.23;;;11.60;97.30;11.00;98755.00;;;;5136556;28;20233;-73
2022/04/30 05:16:10;;;;;;;2.97;2.77;;;11.60;97.70;11.00;98761.00;;;;5136808;28;20205;-73
2022/04/30 05:18:36;;;;;;;2.07;1.87;;;11.60;97.50;11.00;98767.00;;;;5136830;28;20204;-74
2022/04/30 05:21:05;;;;;;;2.73;2.60;;;11.60;97.70;11.00;98769.00;;;;5136723;28;20225;-73
2022/04/30 05:23:32;;;;;;;2.47;2.27;;;11.60;97.50;10.90;98767.00;;;;5139815;28;20236;-74
2022/04/30 05:25:59;;;;;;;2.90;2.70;;;11.60;97.20;11.00;98773.00;;;;5136980;28;20259;-74
2022/04/30 05:28:25;;;;;;;2.17;2.07;;;11.50;98.00;10.80;98772.00;;;;5136675;28;20201;-74
2022/04/30 05:30:52;;;;;;;1.93;1.83;;;11.50;98.00;10.90;98770.00;;;;5136499;28;20304;-74
2022/04/30 05:33:19;;;;;;;2.10;2.00;;;11.50;97.60;10.90;98776.00;;;;5136313;28;20232;-73
2022/04/30 05:35:45;;;;;;;2.23;2.13;;;11.50;98.20;10.90;98778.00;;;;5136364;28;20197;-73
2022/04/30 05:38:12;;;;;;;2.57;2.40;;;11.50;98.50;11.00;98792.00;;;;5136273;28;20262;-73
2022/04/30 05:40:41;;;;;;;1.70;1.60;;;11.60;98.60;11.00;98785.00;;;;5136267;28;20232;-73
2022/04/30 05:43:07;;;;;;;2.47;1.87;;;11.60;98.50;10.90;98786.00;;;;5136108;28;20280;-73
2022/04/30 05:45:34;;;;;;;1.80;1.70;;;11.50;98.70;10.90;98791.00;;;;5136015;28;20213;-73
2022/04/30 05:48:01;;;;;;;2.30;2.10;;;11.50;98.30;10.90;98788.00;;;;5136229;28;20194;-73
2022/04/30 05:50:28;;;;;;;2.30;2.10;;;11.50;99.20;10.80;98785.00;;;;5136047;28;20217;-73
2022/04/30 05:52:54;;;;;;;2.23;2.13;;;11.50;99.50;10.80;98794.00;;;;5117992;28;20225;-73
2022/04/30 05:55:21;;;;;;;2.40;2.30;;;11.50;99.60;10.80;98797.00;;;;5136112;28;20593;-73
2022/04/30 05:57:50;;;;;;;2.30;2.20;;;11.40;99.60;10.80;98802.00;;;;5136006;28;20193;-73
2022/04/30 06:00:19;;;;;;;4.53;2.37;;;11.40;99.90;10.90;98798.00;;;;5135862;28;20304;-73
2022/04/30 06:02:48;;;;;;;3.17;2.90;;;11.50;99.70;10.90;98792.00;;;;5135915;28;20197;-73
2022/04/30 06:05:16;;;;;;;14.83;2.70;;;11.50;99.90;10.80;98787.00;;;;5135837;28;20222;-73
2022/04/30 06:07:42;;;;;;;2.10;1.90;;;11.40;99.90;11.00;98800.00;;;;5118203;28;20633;-74
2022/04/30 06:10:09;;;;;;;1.67;1.57;;;11.50;99.90;10.80;98797.00;;;;5135863;28;20652;-74
2022/04/30 06:12:36;;;;;;;2.10;1.80;;;11.40;99.30;10.80;98804.00;;;;5135773;28;20204;-73
2022/04/30 06:15:04;;;;;;;2.23;2.13;;;11.40;99.90;10.80;98803.00;;;;5135787;28;20274;-74
2022/04/30 06:17:33;;;;;;;2.90;1.53;;;11.40;99.90;11.00;98806.00;;;;5135798;28;20197;-74
2022/04/30 06:20:00;;;;;;;3.00;2.27;;;11.50;99.80;11.10;98769.00;;;;5117748;28;20225;-73
2022/04/30 06:22:27;;;;;;;2.83;1.77;;;11.60;99.90;11.10;98806.00;;;;5135549;28;20216;-74
2022/04/30 06:24:57;;;;;;;2.03;1.93;;;11.70;99.90;11.10;98809.00;;;;5117596;28;20193;-74
2022/04/30 06:27:23;;;;;;;1.80;1.70;;;11.70;99.70;11.30;98805.00;;;;5135467;28;20189;-74
2022/04/30 06:29:51;;;;;;;2.03;1.93;;;11.90;97.90;11.20;98808.00;;;;5138500;28;20256;-75
2022/04/30 06:32:17;;;;;;;2.63;2.37;;;11.80;97.90;11.30;98806.00;;;;5140789;28;20217;-72
2022/04/30 06:34:46;;;;;;;3.27;3.07;;;11.80;98.90;11.30;98812.00;;;;5119164;28;20212;-74
2022/04/30 06:37:12;;;;;;;3.43;2.17;;;11.80;99.40;11.30;98810.00;;;;5135405;28;20225;-74
2022/04/30 06:39:42;;;;;;;1.97;1.87;;;11.90;98.90;11.30;98806.00;;;;5135330;28;20223;-73
2022/04/30 06:42:09;;;;;;;2.67;2.47;;;11.90;99.00;11.30;98820.00;;;;5135335;28;20189;-74
2022/04/30 06:44:36;;;;;;;2.00;1.90;;;11.80;99.00;11.20;98802.00;;;;5117479;28;20680;-74
2022/04/30 06:47:03;;;;;;;2.63;1.93;;;11.80;98.60;11.10;98805.00;;;;5135213;28;20201;-74
2022/04/30 06:49:30;;;;;;;2.40;2.03;;;11.70;99.40;11.20;98812.00;;;;5135528;28;20516;-74
2022/04/30 06:51:57;;;;;;;3.10;2.80;;;11.80;99.50;11.40;98814.00;;;;5135064;28;20225;-74
2022/04/30 06:57:11;;;;;;;1.90;1.80;;;11.80;99.50;11.30;98809.00;;;;5135080;28;20221;-74
2022/04/30 06:59:41;;;;;;;1.73;1.63;;;11.90;99.60;11.30;98812.00;;;;5134997;28;20207;-74
2022/04/30 07:02:13;;;;;;;1.60;1.50;;;11.90;98.90;11.30;98813.00;;;;5135110;28;20274;-72
2022/04/30 07:04:42;;;;;;;3.60;2.63;;;11.90;98.90;11.40;98823.00;;;;5139881;28;20253;-74
2022/04/30 07:07:09;;;;;;;1.73;1.63;;;11.90;99.90;11.50;98812.00;;;;5137848;28;20197;-74
2022/04/30 07:09:37;;;;;;;2.00;1.90;;;12.00;98.70;11.50;98814.00;;;;5134830;28;20193;-74
2022/04/30 07:12:11;;;;;;;2.17;2.07;;;12.00;98.10;11.50;98812.00;;;;5134853;28;20661;-75
2022/04/30 07:14:40;;;;;;;2.57;2.37;;;12.00;98.10;11.30;98824.00;;;;5134794;28;20730;-74
2022/04/30 07:17:08;;;;;;;2.77;2.47;;;11.90;97.70;11.20;98820.00;;;;5134854;28;20229;-74
2022/04/30 07:19:36;;;;;;;1.70;1.60;;;11.90;98.20;11.30;98823.00;;;;5134740;28;20220;-75
2022/04/30 07:22:07;;;;;;;1.10;1.10;;;11.80;98.90;11.20;98815.00;;;;5134899;28;20311;-75
2022/04/30 07:24:37;;;;;;;1.67;1.57;;;11.80;99.10;11.20;98825.00;;;;5134727;28;20178;-75
2022/04/30 07:27:06;;;;;;;1.53;1.50;;;11.80;99.50;11.40;98828.00;;;;5116891;28;20258;-75
2022/04/30 07:29:34;;;;;;;1.53;1.43;;;11.90;99.40;11.40;98827.00;;;;5134606;28;20524;-75
2022/04/30 07:32:01;;;;;;;1.83;1.73;;;12.00;99.00;11.40;98827.00;;;;5133809;28;20252;-76
2022/04/30 07:34:27;;;;;;;1.30;1.30;;;12.00;98.10;11.40;98831.00;;;;5134617;28;20587;-74
2022/04/30 07:36:54;;;;;;;2.37;2.27;;;11.90;98.70;11.30;98831.00;;;;5136120;28;20290;-74
2022/04/30 07:39:21;;;;;;;1.63;1.53;;;11.90;99.00;11.30;98832.00;;;;5116522;28;20693;-74
2022/04/30 07:41:49;;;;;;;2.10;1.93;;;11.90;98.00;11.40;98838.00;;;;5134476;28;20349;-74
2022/04/30 07:44:16;;;;;;;1.97;1.87;;;11.90;98.50;11.40;98807.00;;;;5134583;28;20193;-75
2022/04/30 07:46:44;;;;;;;1.70;1.60;;;11.90;99.00;11.30;98833.00;;;;5134450;28;20193;-74
2022/04/30 07:49:10;;;;;;;2.03;1.33;;;11.90;99.20;11.30;98828.00;;;;5134315;28;20217;-74
2022/04/30 07:51:42;;;;;;;6.13;2.90;;;11.90;99.40;11.20;98833.00;;;;5134633;28;20217;-78
2022/04/30 07:54:09;;;;;;;3.90;2.07;;;11.80;99.30;11.20;98837.00;;;;5116233;28;20315;-76
2022/04/30 07:56:36;;;;;;;1.97;1.70;;;11.80;99.20;11.30;98835.00;;;;5134287;28;20274;-77
2022/04/30 07:59:03;;;;;;;1.13;1.13;;;11.80;99.30;11.20;98838.00;;;;5134300;28;20252;-75
2022/04/30 08:01:30;;;;;;;3.27;1.93;;;11.80;99.50;11.20;98841.00;;;;5116249;28;20284;-76
2022/04/30 08:03:59;;;;;;;1.90;1.80;;;11.80;99.30;11.20;98844.00;;;;5134091;28;20225;-76
2022/04/30 08:06:28;;;;;;;1.00;1.00;;;11.70;99.10;11.10;98838.00;;;;5134191;28;20198;-79
2022/04/30 08:08:54;;;;;;;2.37;2.17;;;11.80;98.70;11.10;98844.00;;;;5134027;28;20240;-79
2022/04/30 08:11:21;;;;;;;2.33;2.13;;;11.70;99.40;11.10;98842.00;;;;5134153;28;20322;-79
2022/04/30 08:13:48;;;;;;;2.47;1.67;;;11.70;98.10;11.10;98848.00;;;;5133959;28;20252;-76
2022/04/30 08:16:14;;;;;;;1.97;1.87;;;11.70;98.10;11.00;98838.00;;;;5134062;28;20205;-76
2022/04/30 08:18:41;;;;;;;1.87;1.77;;;11.70;98.70;11.00;98846.00;;;;5133893;28;20205;-77
2022/04/30 08:21:08;;;;;;;1.87;1.77;;;11.70;98.90;11.00;98848.00;;;;5134104;28;20212;-76
2022/04/30 08:23:36;;;;;;;1.80;1.70;;;11.60;99.30;10.90;98839.00;;;;5116118;28;20302;-76
2022/04/30 08:26:03;;;;;;;1.97;1.87;;;11.60;98.70;11.00;98851.00;;;;5134068;28;20205;-80
2022/04/30 08:28:30;;;;;;;4.03;2.53;;;11.60;99.40;11.10;98847.00;;;;5141145;28;20529;-78
2022/04/30 08:30:59;;;;;;;1.23;1.23;;;11.70;98.70;11.20;98841.00;;;;5139631;28;20228;-78
2022/04/30 08:33:26;;;;;;;1.70;1.43;;;11.80;98.80;11.20;98843.00;;;;5138039;28;20197;-75
2022/04/30 08:35:56;;;;;;;1.83;1.73;;;11.80;98.80;11.20;98847.00;;;;5133725;28;20241;-77
2022/04/30 08:38:23;;;;;;;2.20;2.10;;;11.80;98.10;11.20;98848.00;;;;5133799;28;20709;-76
2022/04/30 08:40:50;;;;;;;1.40;1.40;;;11.80;98.70;11.10;98855.00;;;;5133633;28;20285;-76
2022/04/30 08:43:21;;;;;;;2.60;2.00;;;11.80;98.80;11.20;98825.00;;;;5135388;27;20243;-78
2022/04/30 08:45:48;;;;;;;1.80;1.70;;;11.80;99.70;11.30;98853.00;;;;5137085;28;20224;-78
2022/04/30 08:48:17;;;;;;;1.57;1.57;;;11.80;99.50;11.40;98843.00;;;;5137173;28;20199;-77
2022/04/30 08:50:47;;;;;;;6.60;2.30;;;11.90;99.00;11.30;98848.00;;;;5136955;28;20679;-77
2022/04/30 08:53:14;;;;;;;1.30;1.20;;;11.90;99.30;11.30;98846.00;;;;5137057;28;20209;-78
2022/04/30 08:55:44;;;;;;;1.30;1.30;;;11.80;99.00;11.40;98845.00;;;;5137088;28;20228;-77
2022/04/30 08:58:12;;;;;;;1.37;1.27;;;11.90;99.60;11.40;98848.00;;;;5136998;28;20209;-77
2022/04/30 09:00:44;;;;;;;1.80;1.70;;;12.00;99.90;11.40;98847.00;;;;5136874;28;20317;-78
2022/04/30 09:03:15;;;;;;;1.70;1.63;;;12.00;99.30;11.40;98848.00;;;;5137016;28;20201;-77
2022/04/30 09:05:44;;;;;;;1.83;1.73;;;12.00;99.50;11.50;98847.00;;;;5136841;28;20773;-77
2022/04/30 09:08:11;;;;;;;1.50;1.43;;;12.10;99.60;11.50;98845.00;;;;5136972;28;20189;-77
2022/04/30 09:10:38;;;;;;;2.47;2.27;;;12.10;99.90;11.40;98853.00;;;;5136713;28;20251;-77
2022/04/30 09:13:10;;;;;;;2.37;2.27;;;12.00;99.30;11.50;98850.00;;;;5118638;28;20201;-79
2022/04/30 09:15:38;;;;;;;2.50;1.73;;;12.00;99.30;11.50;98848.00;;;;5136749;28;20277;-79
2022/04/30 09:18:08;;;;;;;1.20;1.20;;;12.10;98.70;11.50;98844.00;;;;5136702;28;20205;-79
2022/04/30 09:20:46;;;;;;;1.60;1.53;;;12.00;98.70;11.40;98848.00;;;;5136785;28;20312;-80
2022/04/30 09:23:24;;;;;;;2.20;2.03;;;12.00;99.40;11.40;98856.00;;;;5136794;28;20225;-79
2022/04/30 09:25:56;;;;;;;1.47;1.43;;;12.00;99.70;11.30;98851.00;;;;5136635;28;20231;-78
2022/04/30 09:28:29;;;;;;;2.00;1.90;;;12.00;99.70;11.30;98836.00;;;;5136693;28;20289;-79
2022/04/30 09:31:08;;;;;;;2.17;2.03;;;11.90;99.90;11.40;98840.00;;;;5118346;28;20308;-80
2022/04/30 09:33:35;;;;;;;1.63;1.53;;;12.00;99.70;11.50;98837.00;;;;5136577;28;20674;-75
2022/04/30 09:38:53;;;;;;;1.27;1.27;;;12.00;98.40;11.60;98848.00;;;;5136583;28;20701;-75
2022/04/30 09:41:23;;;;;;;1.23;1.23;;;12.10;99.30;11.80;98853.00;;;;5136261;28;20644;-78
2022/04/30 09:44:01;;;;;;;1.00;1.00;;;12.20;99.60;11.70;98833.00;;;;5136267;28;20221;-75
2022/04/30 09:46:29;;;;;;;4.03;2.10;;;12.20;97.70;11.80;98843.00;;;;5136125;28;20174;-76
2022/04/30 09:54:27;;;;;;;1.33;1.33;;;12.40;98.80;11.90;98826.00;;;;5135441;27;20217;-77
2022/04/30 09:56:59;;;;;;;2.17;2.07;;;12.30;97.30;12.00;98813.00;;;;5136244;28;20264;-76
2022/04/30 09:59:28;;;;;;;3.10;1.87;;;12.40;96.10;12.00;98834.00;;;;5136102;28;20753;-77
2022/04/30 10:01:55;;;;;;;1.63;1.53;;;12.50;94.50;12.20;98844.00;;;;5135804;28;20235;-79
2022/04/30 10:04:23;;;;;;;1.10;1.10;;;12.60;95.10;12.20;98844.00;;;;5117893;28;20217;-79
2022/04/30 10:06:51;;;;;;;1.23;1.13;;;12.70;95.60;12.30;98829.00;;;;5135963;28;20273;-77
2022/04/30 10:09:22;;;;;;;0.70;0.70;;;12.80;96.10;12.40;98836.00;;;;5135837;28;20663;-76
2022/04/30 10:12:05;;;;;;;0.50;0.50;;;12.80;95.60;12.70;98828.00;;;;5135593;28;20566;-76
2022/04/30 10:14:50;;;;;;;1.30;1.30;;;13.10;93.70;13.00;98832.00;;;;5135663;28;20229;-77
2022/04/30 10:17:23;;;;;;;0.60;0.60;;;13.30;92.20;13.20;98826.00;;;;5135952;28;20205;-78
2022/04/30 10:20:04;;;;;;;0.80;0.80;;;13.60;90.80;13.20;98834.00;;;;5136062;28;20224;-79
2022/04/30 10:22:31;;;;;;;1.03;1.03;;;13.70;87.90;13.30;98833.00;;;;5117045;28;20205;-79
2022/04/30 10:25:01;;;;;;;0.80;0.80;;;13.80;87.70;13.70;98831.00;;;;5135749;28;20229;-80
2022/04/30 10:27:41;;;;;;;0.60;0.60;;;13.90;85.50;14.00;98827.00;;;;5135541;28;20193;-80
2022/04/30 10:30:19;;;;;;;0.73;0.73;;;14.30;85.40;13.80;98834.00;;;;5135362;28;20244;-80
2022/04/30 10:32:57;;;;;;;0.60;0.60;;;14.30;83.20;13.90;98837.00;;;;5135689;28;20227;-79
2022/04/30 10:35:32;;;;;;;0.77;0.77;;;14.30;83.20;13.90;98826.00;;;;5135667;28;20643;-79
2022/04/30 10:38:18;;;;;;;0.50;0.50;;;14.40;82.10;13.90;98826.00;;;;5135440;28;20204;-77
2022/04/30 10:40:48;;;;;;;0.77;0.77;;;14.40;82.20;14.10;98834.00;;;;5135326;28;20727;-77
2022/04/30 10:43:17;;;;;;;0.87;0.87;;;14.40;85.20;13.90;98831.00;;;;5135362;28;20197;-77
2022/04/30 10:45:45;;;;;;;0.83;0.83;;;14.40;82.40;13.70;98831.00;;;;5117449;28;20225;-76
2022/04/30 10:48:16;;;;;;;0.80;0.80;;;14.30;83.70;13.80;98834.00;;;;5135377;28;20193;-77
2022/04/30 10:50:44;;;;;;;0.63;0.63;;;14.20;85.80;13.70;98834.00;;;;5135166;28;20317;-77
2022/04/30 10:53:14;;;;;;;1.13;1.13;;;14.20;84.30;13.60;98830.00;;;;5135187;28;20205;-78
2022/04/30 10:55:42;;;;;;;0.73;0.73;;;14.10;85.60;13.60;98844.00;;;;5135268;28;20256;-77
2022/04/30 10:58:08;;;;;;;0.77;0.77;;;14.00;88.00;13.30;98833.00;;;;5135437;28;20225;-78
2022/04/30 11:00:35;;;;;;;0.70;0.70;;;13.90;85.60;13.10;98831.00;;;;5135265;28;20203;-78
2022/04/30 11:03:10;;;;;;;1.57;1.10;;;13.80;86.20;13.20;98832.00;;;;5135498;28;20211;-78
2022/04/30 11:05:37;;;;;;;1.30;1.20;;;13.70;88.60;13.00;98835.00;;;;5133876;27;20246;-76
2022/04/30 11:08:04;;;;;;;0.97;0.97;;;13.50;90.60;12.80;98835.00;;;;5135258;28;20197;-78
2022/04/30 11:10:32;;;;;;;0.60;0.60;;;13.40;90.70;12.80;98820.00;;;;5135062;28;20304;-78
2022/04/30 11:13:06;;;;;;;0.67;0.67;;;13.40;91.50;12.80;98825.00;;;;5135275;28;20189;-78
2022/04/30 11:15:34;;;;;;;0.97;0.97;;;13.30;91.00;12.70;98818.00;;;;5135117;28;20204;-77
2022/04/30 11:18:01;;;;;;;0.90;0.90;;;13.30;90.00;12.70;98827.00;;;;5135171;28;20610;-76
2022/04/30 11:20:28;;;;;;;1.13;1.13;;;13.20;90.10;12.60;98833.00;;;;5135260;28;20212;-77
2022/04/30 11:22:56;;;;;;;1.03;1.03;;;13.20;90.30;12.70;98814.00;;;;5135545;28;20229;-76
2022/04/30 11:25:31;;;;;;;0.80;0.80;;;13.10;90.90;12.70;98788.00;;;;5134795;28;20193;-75
2022/04/30 11:27:58;;;;;;;0.80;0.80;;;13.20;91.10;13.30;98815.00;;;;5135768;28;20574;-77
2022/04/30 11:30:25;;;;;;;0.70;0.70;;;13.60;91.20;13.30;98817.00;;;;5135215;28;20252;-77
2022/04/30 11:32:54;;;;;;;3.40;2.33;;;13.70;91.30;13.80;98803.00;;;;5134998;28;20209;-78
2022/04/30 11:35:21;;;;;;;0.70;0.70;;;14.00;91.40;14.20;98813.00;;;;5135323;28;20647;-80
2022/04/30 11:37:50;;;;;;;0.70;0.70;;;14.40;91.90;14.40;98815.00;;;;5117210;28;20229;-77